X  Sluiten METAR luchtvaart weer gegevens      EHRD Rotterdam The Hague Airport
Temperatuur
27°C Temperatuur
16°C Dauwpunt
51% Vochtigheid



Wind
9 MPH
14 KM/U
4 M/S
8 KTS



130°
ZO
Huidig weer

Helder Helder
Luchtdruk 1008.81 (hPa) - 29.79 (inHg)
Zicht 6 (mijl) - 9.7 (km)
Vliegveld
Vliegveld code EHRD

Locatie : Rotterdam The Hague Airport
Afstand: 23 (mi)

Metar:
EHRD 200855Z AUTO 13008KT 090V160 9999 NCD 27/16 Q1009 NOSIG

Tijd: 20-07-2024 10:55 CEST